createdAt,value
2022-10-30T00:01:22.800Z,11.10
2022-10-30T00:03:51.173Z,11.10
2022-10-30T00:06:18.458Z,11.10
2022-10-30T00:08:45.641Z,11.10
2022-10-30T00:11:16.886Z,11.10
2022-10-30T00:13:45.238Z,11.10
2022-10-30T00:16:13.889Z,11.10
2022-10-30T00:18:43.559Z,11.10
2022-10-30T00:21:15.076Z,11.10
2022-10-30T00:23:53.805Z,11.10
2022-10-30T00:26:23.224Z,11.10
2022-10-30T00:28:54.579Z,11.10
2022-10-30T00:31:22.588Z,11.10
2022-10-30T00:33:51.512Z,11.00
2022-10-30T00:36:19.244Z,11.10
2022-10-30T00:38:47.808Z,11.00
2022-10-30T00:41:17.308Z,11.00
2022-10-30T00:43:48.165Z,10.90
2022-10-30T00:46:36.785Z,10.90
2022-10-30T00:49:13.833Z,11.00
2022-10-30T00:51:49.312Z,11.00
2022-10-30T00:54:19.090Z,11.00
2022-10-30T00:56:49.460Z,10.90
2022-10-30T00:59:30.742Z,10.90
2022-10-30T01:02:02.836Z,10.90
2022-10-30T01:04:34.366Z,10.90
2022-10-30T01:07:11.254Z,11.00
2022-10-30T01:09:40.187Z,11.00
2022-10-30T01:12:09.088Z,10.90
2022-10-30T01:14:44.140Z,10.90
2022-10-30T01:17:34.540Z,11.00
2022-10-30T01:20:09.913Z,11.00
2022-10-30T01:23:15.489Z,10.90
2022-10-30T01:26:18.211Z,10.90
2022-10-30T01:29:31.678Z,10.90
2022-10-30T01:32:06.018Z,10.90
2022-10-30T01:34:57.704Z,10.90
2022-10-30T01:37:33.830Z,10.90
2022-10-30T01:40:15.819Z,10.90
2022-10-30T01:42:52.015Z,10.90
2022-10-30T01:45:56.400Z,10.90
2022-10-30T01:48:43.633Z,10.90
2022-10-30T01:51:40.198Z,10.90
2022-10-30T01:54:15.662Z,10.90
2022-10-30T01:56:50.901Z,10.90
2022-10-30T01:59:31.382Z,10.80
2022-10-30T02:01:59.777Z,10.80
2022-10-30T02:04:30.129Z,10.70
2022-10-30T02:06:59.719Z,10.70
2022-10-30T02:09:27.170Z,10.80
2022-10-30T02:11:55.825Z,10.80
2022-10-30T02:14:37.582Z,10.80
2022-10-30T02:17:09.749Z,10.80
2022-10-30T02:19:39.338Z,10.80
2022-10-30T02:22:09.523Z,10.80
2022-10-30T02:24:38.372Z,10.80
2022-10-30T02:27:07.351Z,10.80
2022-10-30T02:29:35.598Z,10.80
2022-10-30T02:32:03.363Z,10.80
2022-10-30T02:34:30.568Z,10.80
2022-10-30T02:36:59.308Z,10.80
2022-10-30T02:39:30.673Z,10.70
2022-10-30T02:42:03.314Z,10.80
2022-10-30T02:44:31.455Z,10.80
2022-10-30T02:46:58.609Z,10.80
2022-10-30T02:49:25.953Z,10.90
2022-10-30T02:51:53.248Z,10.80
2022-10-30T02:54:21.499Z,10.80
2022-10-30T02:56:50.737Z,10.90
2022-10-30T02:59:19.802Z,10.80
2022-10-30T03:01:50.499Z,10.80
2022-10-30T03:04:17.954Z,10.80
2022-10-30T03:06:45.100Z,10.80
2022-10-30T03:09:13.294Z,10.80
2022-10-30T03:11:44.647Z,10.70
2022-10-30T03:14:12.279Z,10.70
2022-10-30T03:16:39.553Z,10.70
2022-10-30T03:19:06.896Z,10.80
2022-10-30T03:21:35.657Z,10.70
2022-10-30T03:24:06.385Z,10.80
2022-10-30T03:26:35.824Z,10.70
2022-10-30T03:29:08.527Z,10.80
2022-10-30T03:31:41.486Z,10.80
2022-10-30T03:34:21.534Z,10.80
2022-10-30T03:36:49.847Z,10.80
2022-10-30T03:39:17.987Z,10.80
2022-10-30T03:41:48.662Z,10.80
2022-10-30T03:44:15.934Z,10.70
2022-10-30T03:46:45.985Z,10.80
2022-10-30T03:49:36.345Z,10.70
2022-10-30T03:52:11.102Z,10.70
2022-10-30T03:54:40.342Z,10.70
2022-10-30T03:57:09.966Z,10.70
2022-10-30T03:59:50.599Z,10.70
2022-10-30T04:02:40.011Z,10.70
2022-10-30T04:05:09.034Z,10.70
2022-10-30T04:07:36.217Z,10.60
2022-10-30T04:10:07.165Z,10.60
2022-10-30T04:12:35.972Z,10.60
2022-10-30T04:15:04.116Z,10.60
2022-10-30T04:17:31.864Z,10.60
2022-10-30T04:20:06.875Z,10.60
2022-10-30T04:22:35.114Z,10.60
2022-10-30T04:25:04.064Z,10.50
2022-10-30T04:27:43.305Z,10.60
2022-10-30T04:30:13.690Z,10.60
2022-10-30T04:32:51.991Z,10.60
2022-10-30T04:35:22.711Z,10.50
2022-10-30T04:37:56.337Z,10.60
2022-10-30T04:40:26.742Z,10.50
2022-10-30T04:43:01.243Z,10.50
2022-10-30T04:45:28.729Z,10.60
2022-10-30T04:48:17.849Z,10.50
2022-10-30T04:50:48.275Z,10.50
2022-10-30T04:53:23.485Z,10.50
2022-10-30T04:55:57.716Z,10.50
2022-10-30T04:58:27.581Z,10.50
2022-10-30T05:01:06.078Z,10.50
2022-10-30T05:03:35.650Z,10.50
2022-10-30T05:06:15.859Z,10.40
2022-10-30T05:08:45.189Z,10.40
2022-10-30T05:11:26.388Z,10.50
2022-10-30T05:13:54.668Z,10.50
2022-10-30T05:16:22.822Z,10.40
2022-10-30T05:18:51.634Z,10.40
2022-10-30T05:21:21.884Z,10.40
2022-10-30T05:23:49.281Z,10.40
2022-10-30T05:26:17.815Z,10.40
2022-10-30T05:28:46.047Z,10.40
2022-10-30T05:31:13.245Z,10.40
2022-10-30T05:34:03.183Z,10.40
2022-10-30T05:36:35.185Z,10.30
2022-10-30T05:39:03.733Z,10.30
2022-10-30T05:41:35.520Z,10.30
2022-10-30T05:44:03.899Z,10.30
2022-10-30T05:46:32.481Z,10.30
2022-10-30T05:49:13.176Z,10.30
2022-10-30T05:51:42.956Z,10.40
2022-10-30T05:54:11.763Z,10.40
2022-10-30T05:56:49.143Z,10.40
2022-10-30T05:59:18.268Z,10.40
2022-10-30T06:01:46.136Z,10.40
2022-10-30T06:04:13.406Z,10.40
2022-10-30T06:06:42.136Z,10.40
2022-10-30T06:09:11.095Z,10.50
2022-10-30T06:12:10.400Z,10.40
2022-10-30T06:14:53.354Z,10.40
2022-10-30T06:17:20.602Z,10.50
2022-10-30T06:19:56.456Z,10.50
2022-10-30T06:23:04.830Z,10.50
2022-10-30T06:25:55.820Z,10.50
2022-10-30T06:28:32.194Z,10.50
2022-10-30T06:30:59.387Z,10.50
2022-10-30T06:33:27.781Z,10.40
2022-10-30T06:35:55.932Z,10.40
2022-10-30T06:38:23.815Z,10.50
2022-10-30T06:40:57.974Z,10.50
2022-10-30T06:43:55.754Z,10.40
2022-10-30T06:46:30.622Z,10.50
2022-10-30T06:49:00.947Z,10.50
2022-10-30T06:51:36.060Z,10.50
2022-10-30T06:54:05.185Z,10.50
2022-10-30T06:56:41.955Z,10.50
2022-10-30T06:59:18.270Z,10.50
2022-10-30T07:01:55.673Z,10.40
2022-10-30T07:04:29.245Z,10.40
2022-10-30T07:07:02.352Z,10.40
2022-10-30T07:09:30.623Z,10.40
2022-10-30T07:12:04.078Z,10.50
2022-10-30T07:15:01.180Z,10.60
2022-10-30T07:17:33.142Z,10.50
2022-10-30T07:20:06.543Z,10.50
2022-10-30T07:22:38.218Z,10.50
2022-10-30T07:25:06.021Z,10.60
2022-10-30T07:28:13.353Z,10.70
2022-10-30T07:30:50.851Z,10.60
2022-10-30T07:33:40.975Z,10.60
2022-10-30T07:36:32.133Z,10.50
2022-10-30T07:39:06.806Z,10.60
2022-10-30T07:41:57.127Z,10.50
2022-10-30T07:44:45.443Z,10.60
2022-10-30T07:47:15.704Z,10.60
2022-10-30T07:49:57.597Z,10.60
2022-10-30T07:52:32.866Z,10.60
2022-10-30T07:55:00.843Z,10.60
2022-10-30T07:57:48.965Z,10.70
2022-10-30T08:00:23.402Z,10.70
2022-10-30T08:03:01.141Z,10.70
2022-10-30T08:05:45.879Z,10.60
2022-10-30T08:08:21.579Z,10.70
2022-10-30T08:10:58.899Z,10.80
2022-10-30T08:13:26.301Z,10.90
2022-10-30T08:15:56.200Z,10.80
2022-10-30T08:18:25.661Z,11.00
2022-10-30T08:21:04.569Z,11.00
2022-10-30T08:23:32.760Z,11.00
2022-10-30T08:26:11.021Z,11.00
2022-10-30T08:28:39.247Z,10.90
2022-10-30T08:31:13.037Z,10.90
2022-10-30T08:34:09.619Z,11.00
2022-10-30T08:36:36.781Z,11.00
2022-10-30T08:39:04.969Z,11.00
2022-10-30T08:41:45.891Z,11.10
2022-10-30T08:44:14.581Z,11.00
2022-10-30T08:47:01.911Z,11.10
2022-10-30T08:49:30.240Z,11.00
2022-10-30T08:51:59.865Z,11.20
2022-10-30T08:54:28.262Z,11.20
2022-10-30T08:56:57.149Z,11.40
2022-10-30T08:59:27.393Z,11.20
2022-10-30T09:01:59.359Z,11.20
2022-10-30T09:04:26.695Z,11.20
2022-10-30T09:07:21.157Z,11.10
2022-10-30T09:10:24.071Z,11.00
2022-10-30T09:12:57.462Z,11.10
2022-10-30T09:15:25.817Z,11.40
2022-10-30T09:18:06.257Z,11.30
2022-10-30T09:20:35.648Z,11.40
2022-10-30T09:23:04.434Z,11.60
2022-10-30T09:25:34.410Z,11.70
2022-10-30T09:28:26.259Z,11.70
2022-10-30T09:31:31.499Z,11.50
2022-10-30T09:34:04.076Z,11.50
2022-10-30T09:36:44.295Z,11.30
2022-10-30T09:39:20.967Z,11.50
2022-10-30T09:42:13.961Z,11.50
2022-10-30T09:45:15.186Z,11.60
2022-10-30T09:48:01.978Z,11.70
2022-10-30T09:50:48.498Z,11.70
2022-10-30T09:53:55.072Z,11.60
2022-10-30T09:56:40.124Z,11.50
2022-10-30T09:59:22.145Z,11.50
2022-10-30T10:02:04.302Z,11.60
2022-10-30T10:04:44.167Z,11.60
2022-10-30T10:07:22.128Z,11.70
2022-10-30T10:09:58.299Z,11.60
2022-10-30T10:12:50.918Z,11.70
2022-10-30T10:15:32.891Z,11.90
2022-10-30T10:18:04.393Z,11.70
2022-10-30T10:20:41.636Z,11.80
2022-10-30T10:23:36.210Z,11.80
2022-10-30T10:26:19.024Z,11.90
2022-10-30T10:29:04.769Z,11.90
2022-10-30T10:31:53.174Z,11.90
2022-10-30T10:34:34.383Z,12.10
2022-10-30T10:37:31.359Z,12.10
2022-10-30T10:40:18.194Z,11.90
2022-10-30T10:43:23.899Z,11.90
2022-10-30T10:46:19.985Z,11.90
2022-10-30T10:49:13.795Z,12.00
2022-10-30T10:52:05.578Z,11.90
2022-10-30T10:54:38.923Z,11.90
2022-10-30T10:57:07.374Z,12.00
2022-10-30T10:59:50.243Z,11.90
2022-10-30T11:02:53.817Z,11.90
2022-10-30T11:05:36.648Z,12.00
2022-10-30T11:08:30.623Z,11.90
2022-10-30T11:10:59.321Z,12.00
2022-10-30T11:13:46.075Z,12.10
2022-10-30T11:16:28.685Z,12.00
2022-10-30T11:19:02.670Z,12.10
2022-10-30T11:21:38.713Z,12.20
2022-10-30T11:24:28.967Z,12.00
2022-10-30T11:27:24.155Z,12.00
2022-10-30T11:30:05.924Z,12.10
2022-10-30T11:32:35.093Z,12.00
2022-10-30T11:35:08.570Z,12.10
2022-10-30T11:37:42.999Z,12.00
2022-10-30T11:40:16.892Z,12.10
2022-10-30T11:43:06.439Z,11.90
2022-10-30T11:45:40.664Z,12.00
2022-10-30T11:48:43.701Z,12.10
2022-10-30T11:51:13.094Z,12.00
2022-10-30T11:53:50.587Z,12.10
2022-10-30T11:56:23.845Z,12.00
2022-10-30T11:59:02.997Z,12.00
2022-10-30T12:01:39.530Z,12.00
2022-10-30T12:04:25.261Z,12.00
2022-10-30T12:07:08.657Z,12.00
2022-10-30T12:09:44.855Z,12.10
2022-10-30T12:12:33.203Z,11.90
2022-10-30T12:15:14.512Z,12.10
2022-10-30T12:17:50.554Z,12.10
2022-10-30T12:20:22.533Z,12.00
2022-10-30T12:22:50.374Z,12.20
2022-10-30T12:25:29.488Z,12.10
2022-10-30T12:28:08.798Z,12.30
2022-10-30T12:30:43.372Z,12.20
2022-10-30T12:33:22.996Z,12.20
2022-10-30T12:35:51.164Z,12.10
2022-10-30T12:38:33.585Z,12.20
2022-10-30T12:41:19.599Z,12.30
2022-10-30T12:44:10.825Z,12.30
2022-10-30T12:46:47.389Z,12.10
2022-10-30T12:49:43.571Z,12.10
2022-10-30T12:52:40.238Z,12.10
2022-10-30T12:55:39.716Z,12.10
2022-10-30T12:58:18.449Z,12.00
2022-10-30T13:00:57.474Z,12.10
2022-10-30T13:03:36.680Z,12.20
2022-10-30T13:06:32.916Z,12.10
2022-10-30T13:09:06.658Z,12.10
2022-10-30T13:12:04.308Z,12.10
2022-10-30T13:14:38.828Z,11.90
2022-10-30T13:17:13.461Z,12.00
2022-10-30T13:19:44.967Z,12.00
2022-10-30T13:22:50.232Z,11.90
2022-10-30T13:25:40.649Z,12.00
2022-10-30T13:28:13.934Z,12.00
2022-10-30T13:30:56.610Z,11.90
2022-10-30T13:33:58.374Z,11.90
2022-10-30T13:36:51.311Z,11.90
2022-10-30T13:39:54.778Z,11.80
2022-10-30T13:42:42.657Z,11.90
2022-10-30T13:45:51.394Z,11.90
2022-10-30T13:48:27.635Z,11.80
2022-10-30T13:51:11.536Z,11.80
2022-10-30T13:53:43.824Z,11.80
2022-10-30T13:56:16.620Z,11.90
2022-10-30T13:59:08.282Z,11.90
2022-10-30T14:01:43.136Z,11.90
2022-10-30T14:04:42.409Z,11.90
2022-10-30T14:07:28.446Z,11.80
2022-10-30T14:10:16.794Z,11.70
2022-10-30T14:12:51.565Z,11.80
2022-10-30T14:15:31.642Z,11.80
2022-10-30T14:18:14.411Z,11.80
2022-10-30T14:20:51.152Z,11.70
2022-10-30T14:23:22.043Z,11.70
2022-10-30T14:26:13.005Z,11.70
2022-10-30T14:28:45.461Z,11.70
2022-10-30T14:31:14.191Z,11.60
2022-10-30T14:33:51.210Z,11.60
2022-10-30T14:36:33.573Z,11.50
2022-10-30T14:39:05.655Z,11.40
2022-10-30T14:42:00.892Z,11.50
2022-10-30T14:44:53.084Z,11.40
2022-10-30T14:47:58.530Z,11.50
2022-10-30T14:50:41.590Z,11.50
2022-10-30T14:53:33.790Z,11.40
2022-10-30T14:56:19.955Z,11.40
2022-10-30T14:59:14.703Z,11.40
2022-10-30T15:01:54.909Z,11.40
2022-10-30T15:05:08.584Z,11.50
2022-10-30T15:07:44.128Z,11.40
2022-10-30T15:10:25.864Z,11.40
2022-10-30T15:13:21.474Z,11.40
2022-10-30T15:16:08.469Z,11.40
2022-10-30T15:18:40.441Z,11.50
2022-10-30T15:21:25.500Z,11.40
2022-10-30T15:23:57.668Z,11.40
2022-10-30T15:26:40.706Z,11.40
2022-10-30T15:29:21.155Z,11.40
2022-10-30T15:32:16.823Z,11.30
2022-10-30T15:34:56.211Z,11.40
2022-10-30T15:37:24.156Z,11.30
2022-10-30T15:40:10.216Z,11.30
2022-10-30T15:42:40.570Z,11.40
2022-10-30T15:45:30.052Z,11.40
2022-10-30T15:48:29.329Z,11.40
2022-10-30T15:51:04.166Z,11.40
2022-10-30T15:53:58.210Z,11.40
2022-10-30T15:56:44.343Z,11.40
2022-10-30T15:59:23.860Z,11.40
2022-10-30T16:01:54.828Z,11.40
2022-10-30T16:04:25.168Z,11.50
2022-10-30T16:07:01.025Z,11.50
2022-10-30T16:09:29.089Z,11.40
2022-10-30T16:11:59.172Z,11.50
2022-10-30T16:14:33.611Z,11.50
2022-10-30T16:17:09.615Z,11.40
2022-10-30T16:19:47.068Z,11.50
2022-10-30T16:22:30.236Z,11.50
2022-10-30T16:24:58.854Z,11.50
2022-10-30T16:27:30.094Z,11.50
2022-10-30T16:29:59.897Z,11.50
2022-10-30T16:32:31.541Z,11.50
2022-10-30T16:35:01.245Z,11.50
2022-10-30T16:37:35.926Z,11.50
2022-10-30T16:40:11.167Z,11.50
2022-10-30T16:42:58.349Z,11.50
2022-10-30T16:45:31.664Z,11.60
2022-10-30T16:48:08.406Z,11.60
2022-10-30T16:50:38.790Z,11.60
2022-10-30T16:53:25.981Z,11.50
2022-10-30T16:55:56.654Z,11.50
2022-10-30T16:58:31.562Z,11.50
2022-10-30T17:01:07.183Z,11.50
2022-10-30T17:03:41.660Z,11.60
2022-10-30T17:06:40.030Z,11.60
2022-10-30T17:09:26.117Z,11.60
2022-10-30T17:12:12.190Z,11.60
2022-10-30T17:14:55.905Z,11.60
2022-10-30T17:17:33.671Z,11.60
2022-10-30T17:20:23.804Z,11.60
2022-10-30T17:23:07.888Z,11.60
2022-10-30T17:25:40.378Z,11.60
2022-10-30T17:28:29.375Z,11.60
2022-10-30T17:30:57.803Z,11.70
2022-10-30T17:33:35.739Z,11.70
2022-10-30T17:36:05.037Z,11.70
2022-10-30T17:38:33.482Z,11.70
2022-10-30T17:41:04.031Z,11.70
2022-10-30T17:43:49.182Z,11.70
2022-10-30T17:46:20.346Z,11.70
2022-10-30T17:48:48.522Z,11.70
2022-10-30T17:51:19.246Z,11.70
2022-10-30T17:53:49.788Z,11.70
2022-10-30T17:56:27.028Z,11.60
2022-10-30T17:58:56.265Z,11.70
2022-10-30T18:01:26.051Z,11.70
2022-10-30T18:03:55.455Z,11.70
2022-10-30T18:06:38.032Z,11.70
2022-10-30T18:09:05.388Z,11.70
2022-10-30T18:11:37.557Z,11.70
2022-10-30T18:14:06.587Z,11.70
2022-10-30T18:16:33.829Z,11.60
2022-10-30T18:19:03.159Z,11.60
2022-10-30T18:21:31.535Z,11.60
2022-10-30T18:24:00.866Z,11.60
2022-10-30T18:26:28.312Z,11.60
2022-10-30T18:28:58.428Z,11.60
2022-10-30T18:31:25.641Z,11.60
2022-10-30T18:33:52.887Z,11.60
2022-10-30T18:36:23.635Z,11.50
2022-10-30T18:38:52.910Z,11.50
2022-10-30T18:41:30.741Z,11.50
2022-10-30T18:43:59.468Z,11.50
2022-10-30T18:46:31.282Z,11.50
2022-10-30T18:48:59.233Z,11.50
2022-10-30T18:51:29.910Z,11.50
2022-10-30T18:53:58.117Z,11.40
2022-10-30T18:56:29.640Z,11.50
2022-10-30T18:59:02.556Z,11.50
2022-10-30T19:01:33.492Z,11.50
2022-10-30T19:04:03.213Z,11.50
2022-10-30T19:06:32.984Z,11.50
2022-10-30T19:09:04.417Z,11.50
2022-10-30T19:11:33.647Z,11.50
2022-10-30T19:14:01.228Z,11.40
2022-10-30T19:16:29.523Z,11.50
2022-10-30T19:18:56.761Z,11.40
2022-10-30T19:21:26.233Z,11.40
2022-10-30T19:23:55.566Z,11.40
2022-10-30T19:26:23.111Z,11.40
2022-10-30T19:28:50.379Z,11.40
2022-10-30T19:31:20.374Z,11.40
2022-10-30T19:33:51.504Z,11.40
2022-10-30T19:36:33.907Z,11.40
2022-10-30T19:39:08.597Z,11.40
2022-10-30T19:41:40.328Z,11.40
2022-10-30T19:44:09.066Z,11.40
2022-10-30T19:46:38.336Z,11.40
2022-10-30T19:49:17.629Z,11.30
2022-10-30T19:51:47.971Z,11.40
2022-10-30T19:54:15.424Z,11.40
2022-10-30T19:56:44.349Z,11.40
2022-10-30T19:59:15.495Z,11.40
2022-10-30T20:01:45.095Z,11.40
2022-10-30T20:04:14.162Z,11.40
2022-10-30T20:06:41.452Z,11.40
2022-10-30T20:09:14.849Z,11.30
2022-10-30T20:11:42.043Z,11.40
2022-10-30T20:14:09.195Z,11.30
2022-10-30T20:16:37.448Z,11.30
2022-10-30T20:19:37.334Z,11.30
2022-10-30T20:22:04.599Z,11.30
2022-10-30T20:24:31.772Z,11.30
2022-10-30T20:27:00.241Z,11.30
2022-10-30T20:29:28.341Z,11.30
2022-10-30T20:31:55.783Z,11.40
2022-10-30T20:34:22.896Z,11.40
2022-10-30T20:36:54.652Z,11.40
2022-10-30T20:39:22.860Z,11.40
2022-10-30T20:41:51.036Z,11.40
2022-10-30T20:44:19.287Z,11.40
2022-10-30T20:46:46.455Z,11.30
2022-10-30T20:49:17.590Z,11.40
2022-10-30T20:51:47.799Z,11.30
2022-10-30T20:54:15.924Z,11.30
2022-10-30T20:56:44.183Z,11.30
2022-10-30T20:59:11.353Z,11.30
2022-10-30T21:01:39.705Z,11.30
2022-10-30T21:04:08.024Z,11.30
2022-10-30T21:06:35.447Z,11.40
2022-10-30T21:09:02.675Z,11.30
2022-10-30T21:11:30.847Z,11.40
2022-10-30T21:13:58.670Z,11.30
2022-10-30T21:16:29.996Z,11.40
2022-10-30T21:18:57.236Z,11.40
2022-10-30T21:21:25.772Z,11.30
2022-10-30T21:23:57.064Z,11.30
2022-10-30T21:26:25.341Z,11.30
2022-10-30T21:28:53.497Z,11.30
2022-10-30T21:31:20.940Z,11.40
2022-10-30T21:33:49.286Z,11.40
2022-10-30T21:36:20.271Z,11.40
2022-10-30T21:38:49.870Z,11.40
2022-10-30T21:41:24.977Z,11.40
2022-10-30T21:43:57.323Z,11.40
2022-10-30T21:46:26.917Z,11.40
2022-10-30T21:48:54.531Z,11.40
2022-10-30T21:51:24.147Z,11.40
2022-10-30T21:53:56.044Z,11.40
2022-10-30T21:56:27.158Z,11.40
2022-10-30T21:58:57.462Z,11.30
2022-10-30T22:01:27.965Z,11.30
2022-10-30T22:03:55.856Z,11.30
2022-10-30T22:06:23.234Z,11.30
2022-10-30T22:08:54.259Z,11.30
2022-10-30T22:11:23.411Z,11.30
2022-10-30T22:14:02.099Z,11.30
2022-10-30T22:16:32.888Z,11.30
2022-10-30T22:19:04.180Z,11.30
2022-10-30T22:21:32.973Z,11.30
2022-10-30T22:24:02.268Z,11.30
2022-10-30T22:26:31.920Z,11.30
2022-10-30T22:29:11.244Z,11.30
2022-10-30T22:31:38.496Z,11.30
2022-10-30T22:34:05.626Z,11.30
2022-10-30T22:36:34.198Z,11.30
2022-10-30T22:39:12.702Z,11.30
2022-10-30T22:41:42.301Z,11.30
2022-10-30T22:44:17.690Z,11.30
2022-10-30T22:46:45.984Z,11.30
2022-10-30T22:49:13.034Z,11.30
2022-10-30T22:51:41.342Z,11.30
2022-10-30T22:54:13.229Z,11.30
2022-10-30T22:56:43.542Z,11.30
2022-10-30T22:59:13.177Z,11.30
2022-10-30T23:01:42.015Z,11.30
2022-10-30T23:04:18.444Z,11.20
2022-10-30T23:06:45.774Z,11.30
2022-10-30T23:09:17.933Z,11.20
2022-10-30T23:11:46.217Z,11.20
2022-10-30T23:14:13.437Z,11.20
2022-10-30T23:16:42.434Z,11.20
2022-10-30T23:19:12.275Z,11.20
2022-10-30T23:21:39.666Z,11.10
2022-10-30T23:24:07.330Z,11.20
2022-10-30T23:26:35.954Z,11.20
2022-10-30T23:29:06.380Z,11.10
2022-10-30T23:31:39.401Z,11.10
2022-10-30T23:34:09.434Z,11.10
2022-10-30T23:36:38.915Z,11.10
2022-10-30T23:39:13.277Z,11.10
2022-10-30T23:41:44.037Z,11.20
2022-10-30T23:44:13.613Z,11.20
2022-10-30T23:46:42.233Z,11.20
2022-10-30T23:49:09.396Z,11.10
2022-10-30T23:51:36.604Z,11.10
2022-10-30T23:54:04.957Z,11.10
2022-10-30T23:56:32.681Z,11.10
2022-10-30T23:59:00.573Z,11.00
